Tiempo atmosférico en la estación meteorológica de Antigua, Las Palmas (252 m.)



Fecha
DESCASC
Temp. máxima en grados centígrados (hora)
DESCASC
Temp. mínima en grados centígrados (hora)
DESCASC
Temp. media en grados centígrados
DESCASC
Racha de viento máxima en m/sg (hora)
DESCASC
Velocidad máxima media en intervalos de 10 minutos(hora)
DESCASC
Precipitaciones diarias en mm
DESCASC
Precipitaciones de 00:00 a 06:00 en mm
DESCASC
Precipitaciones de 06:00 a 12:00 en mm
DESCASC
Precipitaciones de 12:00 a 18:00 en mm
DESCASC
Precipitaciones de 18:00 a 24:00 en mm
DESCASC
11-12-2019 19.3 (13:30) 15 (04:40) 17.1 10 (14:50) 6.67 (15:30) 0 0 0 0 0
10-12-2019 21.4 (13:50) 13.2 (05:00) 17.3 11.11 (15:10) 7.78 (14:50) 0 0 0 0 0
09-12-2019 19.9 (14:30) 14.2 (22:50) 17 9.72 (12:10) 6.67 (12:20) 0 0 0 0 0
08-12-2019 19.6 (13:40) 13 (00:00) 16.3 11.39 (17:00) 7.78 (12:40) 0 0 0 0 0
07-12-2019 20 (13:00) 11.6 (00:00) 15.8 11.67 (14:40) 7.5 (14:40) 0 0 0 0 0
06-12-2019 18.1 (14:10) 13.3 (00:00) 15.7 13.33 (14:20) 9.72 (15:10) 0 0 0 0 0
05-12-2019 17.6 (13:30) 13.4 (00:00) 15.5 15.83 (02:00) 11.11 (01:10) 11.4 9.4 1.2 0 0.8
04-12-2019 19.6 (12:30) 11.5 (00:00) 15.6 12.5 (23:40) 7.78 (22:50) 0.2 0.2 0 0 0
03-12-2019 18.7 (11:50) 13.5 (00:00) 16.1 13.33 (14:50) 9.44 (14:40) 1.8 0.4 1.2 0 0.2
02-12-2019 19.3 (10:50) 14.7 (00:00) 17 13.89 (13:00) 10 (10:10) 2 0 0 1.6 0.4
01-12-2019 22 (13:20) 15.3 (00:00) 18.7 10 (14:30) 6.67 (15:40) 0 0 0 0 0
30-11-2019 25.5 (14:10) 15.3 (00:00) 20.4 7.22 (15:30) 5 (15:20) 0 0 0 0 0
29-11-2019 26.9 (15:40) 16.3 (00:00) 21.6 6.11 (11:10) 4.17 (11:20) 0 0 0 0 0
28-11-2019 23.5 (13:40) 15.2 (00:00) 19.3 6.67 (02:00) 4.17 (13:00) 0 0 0 0 0
27-11-2019 22.8 (13:50) 15.5 (00:00) 19.1 7.5 (07:30) 5.28 (07:00) 0 0 0 0 0
26-11-2019 23.5 (15:00) 14.6 (00:00) 19.1 7.78 (16:00) 5.83 (16:00) 0 0 0 0 0
25-11-2019 20.6 (14:00) 12.4 (00:00) 16.5 11.11 (10:50) 6.11 (19:10) 0 0 0 0 0
24-11-2019 21.1 (14:30) 14.6 (00:00) 17.9 12.22 (15:10) 8.33 (16:30) 0 0 0 0 0
23-11-2019 22 (13:20) 16 (00:00) 19 10.83 (09:30) 7.22 (12:50) 1 0 0 1 0
22-11-2019 21.2 (15:50) 16.1 (00:00) 18.7 11.11 (07:30) 8.61 (07:30) 1.4 0 1.2 0 0.2
21-11-2019 20.7 (12:10) 16 (00:00) 18.4 7.78 (03:40) 5.83 (12:00) 1 0.2 0.8 0 0
20-11-2019 20.7 (13:20) 13.9 (00:00) 17.3 10 (14:40) 6.67 (14:20) 1.4 0.2 1.2 0 0
19-11-2019 20.4 (13:00) 13.7 (00:00) 17 10.28 (13:40) 7.78 (12:20) 1 0 1 0 0
18-11-2019 20.3 (14:00) 11.6 (00:00) 15.9 11.11 (13:00) 5.56 (12:20) 0 0 0 0 0
17-11-2019 18.6 (12:50) 12 (00:00) 15.3 11.94 (13:00) 8.06 (10:50) 0 0 0 0 0
16-11-2019 19.4 (12:10) 13.7 (00:00) 16.5 15.28 (11:00) 10.83 (11:00) 0 0 0 0 0
15-11-2019 20.1 (12:50) 14.1 (00:00) 17.1 15 (16:30) 11.11 (16:40) 0.2 0 0.2 0 0
14-11-2019 21.5 (13:40) 14.5 (00:00) 18 11.67 (15:10) 7.5 (10:30) 0 0 0 0 0
13-11-2019 22.6 (13:50) 15.8 (00:00) 19.2 15.56 (16:40) 10.83 (15:40) 0 0 0 0 0
12-11-2019 23.2 (13:30) 16.5 (00:00) 19.9 15 (15:10) 11.11 (15:40) 0 0 0 0 0

Gráficas

Temp. máximas Temp. mínimas Temp. medias Precipitaciones Rachas de viento máximas Velocidades máximas media en intervalos de 10 minutos

Datos horarios

Fecha y hora oficial Temperatura (ºC) Velocidad del viento (km/h) Dirección del viento Racha (km/h) Dirección de racha Precipitación (mm) Presión (hPa) Tendencia (hPa) Humedad (%)
2019-12-11 23:00:00 15.7 14 Norte 26 Nordeste 0 -- -- 81
2019-12-11 22:00:00 15.6 14 Nordeste 29 Norte 0 -- -- 79
2019-12-11 21:00:00 15.7 12 Norte 26 Norte 0 -- -- 78
2019-12-11 20:00:00 15.9 13 Nordeste 27 Nordeste 0 -- -- 79
2019-12-11 19:00:00 16 13 Nordeste 28 Norte 0 -- -- 80
2019-12-11 18:00:00 16.5 19 Nordeste 32 Nordeste 0 -- -- 77
2019-12-11 17:00:00 17.6 16 Nordeste 32 Nordeste 0 -- -- 71
2019-12-11 16:00:00 18 22 Nordeste 36 Nordeste 0 -- -- 70
2019-12-11 15:00:00 18.8 22 Nordeste 36 Nordeste 0 -- -- 69
2019-12-11 14:00:00 19.2 23 Nordeste 33 Nordeste 0 -- -- 68
2019-12-11 13:00:00 18.5 21 Nordeste 32 Nordeste 0 -- -- 74
2019-12-11 12:00:00 18.8 15 Nordeste 29 Nordeste 0 -- -- 72
2019-12-11 11:00:00 18.1 18 Nordeste 29 Nordeste 0 -- -- 76
2019-12-11 10:00:00 17.2 14 Nordeste 26 Norte 0 -- -- 83
2019-12-11 09:00:00 16.4 13 Nordeste 22 Nordeste 0 -- -- 86
2019-12-11 08:00:00 15.4 9 Norte 17 Nordeste 0 -- -- 90
2019-12-11 07:00:00 15.6 8 Norte 21 Nordeste 0 -- -- 90
2019-12-11 06:00:00 15.4 6 Norte 14 Norte 0 -- -- 91
2019-12-11 05:00:00 15.1 7 Noroeste 12 Norte 0 -- -- 91
2019-12-11 04:00:00 15.1 3 Norte 12 Nordeste 0 -- -- 90
2019-12-11 03:00:00 15.3 6 Nordeste 14 Este 0 -- -- 90
2019-12-11 02:00:00 15.4 5 Noroeste 21 Nordeste 0 -- -- 89
2019-12-11 01:00:00 15.7 12 Nordeste 27 Nordeste 0 -- -- 87
2019-12-11 00:00:00 15.9 15 Nordeste 30 Nordeste 0 -- -- 85
2019-12-10 23:00:00 16.2 17 Nordeste 32 Nordeste 0 -- -- 86
2019-12-10 22:00:00 16.5 19 Nordeste 34 Nordeste 0 -- -- 86
2019-12-10 21:00:00 16.5 21 Nordeste 36 Nordeste 0 -- -- 86
2019-12-10 20:00:00 16.7 21 Nordeste 32 Nordeste 0 -- -- 81
2019-12-10 19:00:00 17 14 Nordeste 27 Nordeste 0 -- -- 82
2019-12-10 18:00:00 18.1 13 Norte 35 Norte 0 -- -- 80
2019-12-10 17:00:00 18.9 27 Norte 39 Noroeste 0 -- -- 76
2019-12-10 16:00:00 20.3 27 Norte 40 Norte 0 -- -- 72
2019-12-10 15:00:00 20.4 27 Noroeste 38 Noroeste 0 -- -- 72
2019-12-10 14:00:00 21.3 14 Norte 29 Noroeste 0 -- -- 58
2019-12-10 13:00:00 20.3 13 Nordeste 23 Nordeste 0 -- -- 65
2019-12-10 12:00:00 19.4 16 Nordeste 22 Nordeste 0 -- -- 73
2019-12-10 11:00:00 18.4 12 Nordeste 19 Norte 0 -- -- 79
2019-12-10 10:00:00 17.7 11 Nordeste 20 Nordeste 0 -- -- 83
2019-12-10 09:00:00 15.7 2 Oeste 9 Noroeste 0 -- -- 91
2019-12-10 08:00:00 13.6 6 Noroeste 9 Noroeste 0 -- -- 94
2019-12-10 07:00:00 14.1 4 Norte 12 Norte 0 -- -- 93
2019-12-10 06:00:00 14.1 6 Noroeste 14 Noroeste 0 -- -- 94
2019-12-10 05:00:00 13.2 6 Noroeste 14 Noroeste 0 -- -- 92
2019-12-10 04:00:00 14 6 Norte 12 Nordeste 0 -- -- 92
2019-12-10 03:00:00 14 8 Norte 17 Norte 0 -- -- 94
2019-12-10 02:00:00 13.7 8 Norte 15 Norte 0 -- -- 94
2019-12-10 01:00:00 13.4 6 Noroeste 9 Noroeste 0 -- -- 93
2019-12-10 00:00:00 14.3 4 Noroeste 9 Noroeste 0 -- -- 93
2019-12-09 23:00:00 14.3 4 Noroeste 10 Oeste 0 -- -- 91
2019-12-09 22:00:00 14.6 7 Oeste 18 Nordeste 0 -- -- 89
2019-12-09 21:00:00 15.7 12 Nordeste 23 Nordeste 0 -- -- 85
2019-12-09 20:00:00 15.8 10 Norte 20 Norte 0 -- -- 87
2019-12-09 19:00:00 16.2 8 Norte 22 Nordeste 0 -- -- 85
2019-12-09 18:00:00 17 12 Nordeste 23 Nordeste 0 -- -- 81
2019-12-09 17:00:00 18.2 16 Nordeste 26 Nordeste 0 -- -- 75
2019-12-09 16:00:00 19 19 Nordeste 29 Nordeste 0 -- -- 72
2019-12-09 15:00:00 19.5 18 Nordeste 30 Nordeste 0 -- -- 70
2019-12-09 14:00:00 19.8 20 Nordeste 34 Nordeste 0 -- -- 66
2019-12-09 13:00:00 19.7 22 Este 35 Este 0 -- -- 68
2019-12-09 12:00:00 18.8 22 Nordeste 30 Este 0 -- -- 71
2019-12-09 11:00:00 18.2 18 Nordeste 27 Nordeste 0 -- -- 75
2019-12-09 10:00:00 17.8 14 Nordeste 22 Nordeste 0 -- -- 79
2019-12-09 09:00:00 16.8 12 Norte 22 Nordeste 0 -- -- 85
2019-12-09 08:00:00 15.6 10 Norte 18 Norte 0 -- -- 90
2019-12-09 07:00:00 15.5 12 Norte 19 Norte 0 -- -- 89
2019-12-09 06:00:00 15.6 7 Norte 17 Nordeste 0 -- -- 87
2019-12-09 05:00:00 15.6 11 Norte 24 Noroeste 0 -- -- 85
2019-12-09 04:00:00 15 3 Norte 17 Noroeste 0 -- -- 88
2019-12-09 03:00:00 15 7 Noroeste 20 Nordeste 0 -- -- 87
2019-12-09 02:00:00 15.8 14 Nordeste 26 Nordeste 0 -- -- 85
2019-12-09 01:00:00 15.7 13 Nordeste 23 Este 0 -- -- 84
2019-12-09 00:00:00 16.1 16 Nordeste 26 Nordeste 0 -- -- 82
2019-12-08 23:00:00 16 17 Nordeste 31 Nordeste 0 -- -- 81
2019-12-08 22:00:00 16.2 17 Nordeste 28 Nordeste 0 -- -- 80
2019-12-08 21:00:00 16.2 17 Nordeste 32 Nordeste 0 -- -- 79
2019-12-08 20:00:00 16.1 18 Nordeste 28 Nordeste 0 -- -- 75
2019-12-08 19:00:00 16.2 18 Nordeste 35 Nordeste 0 -- -- 80
2019-12-08 18:00:00 16.6 20 Nordeste 35 Norte 0 -- -- 78
2019-12-08 17:00:00 17.5 24 Nordeste 41 Nordeste 0 -- -- 74
2019-12-08 16:00:00 18.3 28 Nordeste 39 Norte 0 -- -- 69
2019-12-08 15:00:00 19 22 Nordeste 38 Nordeste 0 -- -- 64
2019-12-08 14:00:00 19.2 22 Nordeste 39 Nordeste 0 -- -- 62
2019-12-08 13:00:00 19 24 Nordeste 40 Nordeste 0 -- -- 61
2019-12-08 12:00:00 18.3 21 Norte 36 Nordeste 0 -- -- 63
2019-12-08 11:00:00 18.1 17 Norte 33 Nordeste 0 -- -- 65
2019-12-08 10:00:00 16.8 14 Nordeste 35 Nordeste 0 -- -- 73
2019-12-08 09:00:00 15.6 12 Norte 19 Nordeste 0 -- -- 79
2019-12-08 08:00:00 13 8 Norte 18 Noroeste 0 -- -- 87
2019-12-08 07:00:00 13.5 13 Norte 26 Norte 0 -- -- 84
2019-12-08 06:00:00 14.4 15 Norte 28 Norte 0 -- -- 83
2019-12-08 05:00:00 14.5 12 Norte 24 Norte 0 -- -- 84
2019-12-08 04:00:00 14.8 13 Norte 30 Norte 0 -- -- 82
2019-12-08 03:00:00 15 14 Norte 27 Norte 0 -- -- 83
2019-12-08 02:00:00 15.2 14 Norte 31 Nordeste 0 -- -- 80
2019-12-08 01:00:00 15.7 18 Norte 30 Norte 0 -- -- 78
2019-12-08 00:00:00 16.4 21 Norte 39 Norte 0 -- -- 81
2019-12-07 23:00:00 16.1 16 Norte 27 Nordeste 0 -- -- 83
2019-12-07 22:00:00 16 13 Norte 21 Norte 0 -- -- 85
2019-12-07 21:00:00 16 13 Nordeste 19 Nordeste 0 -- -- 83
2019-12-07 20:00:00 16 14 Norte 27 Norte 0 -- -- 89
2019-12-07 19:00:00 16.3 17 Norte 25 Norte 0 -- -- 89
2019-12-07 18:00:00 17.1 13 Nordeste 24 Nordeste 0 -- -- 79
2019-12-07 17:00:00 17.8 14 Nordeste 29 Nordeste 0 -- -- 76
2019-12-07 16:00:00 18.4 19 Norte 36 Norte 0 -- -- 74
2019-12-07 15:00:00 18.1 22 Norte 42 Norte 0 -- -- 77
2019-12-07 14:00:00 19.2 19 Norte 31 Norte 0 -- -- 70
2019-12-07 13:00:00 20 16 Nordeste 33 Nordeste 0 -- -- 65
2019-12-07 12:00:00 19.1 17 Norte 26 Norte 0 -- -- 67
2019-12-07 11:00:00 18.5 15 Norte 24 Norte 0 -- -- 71
2019-12-07 10:00:00 17.3 13 Norte 22 Noroeste 0 -- -- 84
2019-12-07 09:00:00 15.7 9 Norte 17 Noroeste 0 -- -- 92
2019-12-07 08:00:00 13.6 3 Norte 21 Noroeste 0 -- -- 93
2019-12-07 07:00:00 13.1 11 Noroeste 14 Noroeste 0 -- -- 94
2019-12-07 06:00:00 12.4 4 Noroeste 12 Noroeste 0 -- -- 91
2019-12-07 05:00:00 13.2 11 Noroeste 17 Noroeste 0 -- -- 90
2019-12-07 04:00:00 12.8 9 Noroeste 16 Noroeste 0 -- -- 90
2019-12-07 03:00:00 13 11 Noroeste 17 Noroeste 0 -- -- 90
2019-12-07 02:00:00 13.1 14 Noroeste 16 Noroeste 0 -- -- 90
2019-12-07 01:00:00 12.8 9 Noroeste 16 Noroeste 0 -- -- 90
2019-12-07 00:00:00 13.5 13 Noroeste 18 Noroeste 0 -- -- 89
2019-12-06 23:00:00 13.3 12 Noroeste 22 Noroeste 0 -- -- 90
2019-12-06 22:00:00 14.2 17 Noroeste 22 Norte 0 -- -- 88
2019-12-06 21:00:00 13.9 12 Norte 22 Noroeste 0 -- -- 88
2019-12-06 20:00:00 14.7 18 Noroeste 25 Noroeste 0 -- -- 87
2019-12-06 19:00:00 14.7 17 Noroeste 24 Noroeste 0 -- -- 86
2019-12-06 18:00:00 15.3 19 Norte 29 Norte 0 -- -- 85
2019-12-06 17:00:00 15.7 20 Norte 35 Norte 0 -- -- 81
2019-12-06 16:00:00 16.5 27 Norte 46 Norte 0 -- -- 77
2019-12-06 15:00:00 18 35 Norte 48 Norte 0 -- -- 68
2019-12-06 14:00:00 17.8 31 Norte 44 Noroeste 0 -- -- 73
2019-12-06 13:00:00 17.6 28 Norte 45 Norte 0 -- -- 76
2019-12-06 12:00:00 16.8 27 Norte 37 Norte 0 -- -- 81
2019-12-06 11:00:00 16.9 26 Norte 35 Norte 0 -- -- 82
2019-12-06 10:00:00 16.7 23 Norte 32 Norte 0 -- -- 82
2019-12-06 09:00:00 15.3 18 Norte 30 Norte 0 -- -- 85
2019-12-06 08:00:00 13.6 16 Noroeste 25 Noroeste 0 -- -- 93
2019-12-06 07:00:00 13.8 19 Norte 31 Noroeste 0 -- -- 93
2019-12-06 06:00:00 13.7 16 Noroeste 27 Noroeste 0 -- -- 93
2019-12-06 05:00:00 13.9 24 Noroeste 31 Noroeste 0 -- -- 92
2019-12-06 04:00:00 13.7 12 Noroeste 28 Norte 0 -- -- 93
2019-12-06 03:00:00 13.8 16 Noroeste 27 Norte 0 -- -- 93
2019-12-06 02:00:00 14.1 20 Noroeste 44 Noroeste 0 -- -- 92
2019-12-06 01:00:00 14.5 25 Noroeste 35 Noroeste 0 -- -- 89
2019-12-06 00:00:00 15.1 20 Norte 37 Noroeste 0 -- -- 83
2019-12-05 23:00:00 15 27 Noroeste 37 Noroeste 0 -- -- 78
2019-12-05 22:00:00 14.8 27 Noroeste 40 Noroeste 0.8 -- -- 83
2019-12-05 21:00:00 15.2 23 Noroeste 33 Noroeste 0 -- -- 79
2019-12-05 20:00:00 15.1 25 Noroeste 41 Noroeste 0 -- -- 73
2019-12-05 19:00:00 15.2 25 Noroeste 40 Noroeste 0 -- -- 80
2019-12-05 18:00:00 15.2 21 Norte 32 Norte 0 -- -- 80
2019-12-05 17:00:00 15.3 17 Norte 44 Norte 0 -- -- 82
2019-12-05 16:00:00 16.2 30 Norte 43 Norte 0 -- -- 80
2019-12-05 15:00:00 15.5 30 Norte 49 Norte 0 -- -- 82
2019-12-05 14:00:00 16.3 33 Noroeste 52 Noroeste 0 -- -- 78
2019-12-05 13:00:00 17.3 31 Noroeste 52 Noroeste 0 -- -- 75
2019-12-05 12:00:00 17.2 37 Noroeste 51 Noroeste 0 -- -- 74
2019-12-05 11:00:00 16.3 29 Noroeste 42 Noroeste 0 -- -- 80
2019-12-05 10:00:00 15 26 Noroeste 44 Noroeste 1.2 -- -- 90
2019-12-05 09:00:00 15.9 25 Noroeste 35 Noroeste 0 -- -- 76
2019-12-05 08:00:00 15.1 26 Noroeste 45 Noroeste 0 -- -- 79
2019-12-05 07:00:00 14.9 27 Noroeste 49 Noroeste 0 -- -- 76
2019-12-05 06:00:00 14.8 35 Noroeste 54 Noroeste 0 -- -- 75
2019-12-05 05:00:00 14.8 34 Noroeste 55 Noroeste 0 -- -- 77
2019-12-05 04:00:00 14.4 34 Noroeste 53 Noroeste 0 -- -- 95
2019-12-05 03:00:00 13.4 28 Norte 50 Norte 0.2 -- -- 98
2019-12-05 02:00:00 13.9 37 Noroeste 57 Noroeste 6.4 -- -- 97
2019-12-05 01:00:00 16 40 Noroeste 54 Noroeste 2.8 -- -- 90
2019-12-05 00:00:00 16.8 19 Oeste 45 Noroeste 0 -- -- 82
2019-12-04 23:00:00 16.7 28 Oeste 40 Oeste 0 -- -- 83
2019-12-04 22:00:00 16.4 24 Noroeste 34 Noroeste 0 -- -- 82
2019-12-04 21:00:00 15.9 20 Noroeste 39 Oeste 0 -- -- 81
2019-12-04 20:00:00 16.6 23 Noroeste 36 Noroeste 0 -- -- 83
2019-12-04 19:00:00 16.1 21 Noroeste 36 Noroeste 0 -- -- 81
2019-12-04 18:00:00 16.2 21 Noroeste 34 Noroeste 0 -- -- 80
2019-12-04 17:00:00 17.2 24 Noroeste 40 Noroeste 0 -- -- 75
2019-12-04 16:00:00 17.8 24 Noroeste 35 Noroeste 0 -- -- 73
2019-12-04 15:00:00 18.3 22 Noroeste 36 Noroeste 0 -- -- 68
2019-12-04 14:00:00 18.9 20 Noroeste 37 Noroeste 0 -- -- 66
2019-12-04 13:00:00 19.1 26 Noroeste 37 Noroeste 0 -- -- 61
2019-12-04 12:00:00 19.3 26 Noroeste 38 Noroeste 0 -- -- 57
2019-12-04 11:00:00 18 19 Noroeste 33 Noroeste 0 -- -- 69
2019-12-04 10:00:00 16.8 19 Noroeste 39 Noroeste 0 -- -- 65
2019-12-04 09:00:00 14.5 3 Norte 6 Noroeste 0 -- -- 88
2019-12-04 08:00:00 12.3 5 Norte 10 Noroeste 0 -- -- 90
2019-12-04 07:00:00 12.5 5 Noroeste 12 Noroeste 0 -- -- 88
2019-12-04 06:00:00 13.7 6 Noroeste 11 Noroeste 0 -- -- 88
2019-12-04 05:00:00 13.9 10 Noroeste 15 Noroeste 0 -- -- 88
2019-12-04 04:00:00 14.3 14 Noroeste 22 Noroeste 0 -- -- 89
2019-12-04 03:00:00 14.4 14 Noroeste 19 Noroeste 0 -- -- 90
2019-12-04 02:00:00 14.7 12 Norte 16 Norte 0 -- -- 91
2019-12-04 01:00:00 14.7 9 Norte 20 Noroeste 0.2 -- -- 91
2019-12-04 00:00:00 14.5 13 Noroeste 18 Noroeste 0.2 -- -- 90
2019-12-03 23:00:00 14.6 13 Noroeste 19 Noroeste 0 -- -- 82
2019-12-03 22:00:00 14.9 13 Noroeste 19 Noroeste 0 -- -- 84
2019-12-03 21:00:00 15.2 15 Noroeste 21 Noroeste 0 -- -- 84
2019-12-03 20:00:00 15.3 11 Norte 24 Noroeste 0 -- -- 80
2019-12-03 19:00:00 15.6 17 Noroeste 28 Noroeste 0 -- -- 78
2019-12-03 18:00:00 16.2 24 Noroeste 36 Noroeste 0 -- -- 74
2019-12-03 17:00:00 17.2 22 Noroeste 35 Noroeste 0 -- -- 72
2019-12-03 16:00:00 15.6 21 Noroeste 45 Noroeste 0 -- -- 83
2019-12-03 15:00:00 16.1 31 Noroeste 48 Noroeste 0 -- -- 77
2019-12-03 14:00:00 17.7 33 Noroeste 44 Noroeste 0 -- -- 66
2019-12-03 13:00:00 18.1 30 Noroeste 45 Noroeste 0 -- -- 66
2019-12-03 12:00:00 18.1 30 Norte 42 Noroeste 0 -- -- 63
2019-12-03 11:00:00 17.9 27 Noroeste 41 Norte 0 -- -- 65
2019-12-03 10:00:00 17.3 27 Noroeste 39 Norte 0 -- -- 70
2019-12-03 09:00:00 14.8 20 Noroeste 45 Norte 0.2 -- -- 87
2019-12-03 08:00:00 14.6 27 Noroeste 47 Noroeste 1 -- -- 85
2019-12-03 07:00:00 15.3 21 Noroeste 37 Noroeste 0 -- -- 74
2019-12-03 06:00:00 15.5 23 Noroeste 43 Noroeste 0 -- -- 71
2019-12-03 05:00:00 15.6 27 Noroeste 40 Noroeste 0 -- -- 75
2019-12-03 04:00:00 15 24 Noroeste 36 Noroeste 0.4 -- -- 81
2019-12-03 03:00:00 15.2 17 Noroeste 40 Noroeste 0 -- -- 80
2019-12-03 02:00:00 15.8 24 Noroeste 37 Norte 0 -- -- 77
2019-12-03 01:00:00 15.7 23 Noroeste 39 Noroeste 0 -- -- 76
2019-12-03 00:00:00 15.7 21 Noroeste 35 Noroeste 0 -- -- 81
2019-12-02 23:00:00 15.4 19 Noroeste 28 Noroeste 0 -- -- 83
2019-12-02 22:00:00 14.8 20 Noroeste 39 Noroeste 0.2 -- -- 86
2019-12-02 21:00:00 15.8 22 Noroeste 35 Noroeste 0 -- -- 79
2019-12-02 20:00:00 15.6 19 Noroeste 29 Norte 0 -- -- 84
2019-12-02 19:00:00 14.9 21 Noroeste 38 Noroeste 0.2 -- -- 90
2019-12-02 18:00:00 14.9 24 Noroeste 40 Noroeste 0.6 -- -- 90
2019-12-02 17:00:00 15.9 24 Noroeste 33 Noroeste 0.4 -- -- 88
2019-12-02 16:00:00 16 24 Noroeste 40 Noroeste 0.6 -- -- 90
2019-12-02 15:00:00 18.2 26 Noroeste 44 Noroeste 0 -- -- 73
2019-12-02 14:00:00 19 24 Noroeste 47 Noroeste 0 -- -- 67
2019-12-02 13:00:00 17.8 32 Noroeste 50 Noroeste 0 -- -- 77
2019-12-02 12:00:00 19.3 30 Noroeste 44 Noroeste 0 -- -- 63
2019-12-02 11:00:00 18.9 35 Noroeste 49 Noroeste 0 -- -- 61
2019-12-02 10:00:00 19 30 Noroeste 46 Norte 0 -- -- 61
2019-12-02 09:00:00 17.9 24 Noroeste 37 Noroeste 0 -- -- 70
2019-12-02 08:00:00 16.5 27 Noroeste 41 Noroeste 0 -- -- 67
2019-12-02 07:00:00 15.9 19 Noroeste 31 Noroeste 0 -- -- 77
2019-12-02 06:00:00 15.9 18 Noroeste 30 Noroeste 0 -- -- 78
2019-12-02 05:00:00 16.4 16 Norte 34 Norte 0 -- -- 86
2019-12-02 04:00:00 16.3 19 Noroeste 28 Noroeste 0 -- -- 87
2019-12-02 03:00:00 16.2 18 Noroeste 30 Norte 0 -- -- 85
2019-12-02 02:00:00 16.4 14 Noroeste 25 Norte 0 -- -- 90
2019-12-02 01:00:00 17.1 18 Norte 32 Norte 0 -- -- 90
2019-12-02 00:00:00 16.3 12 Noroeste 21 Noroeste 0 -- -- 89
2019-12-01 23:00:00 16.3 13 Noroeste 18 Noroeste 0 -- -- 88
2019-12-01 22:00:00 15.4 12 Noroeste 17 Noroeste 0 -- -- 87
2019-12-01 21:00:00 15.7 12 Noroeste 17 Noroeste 0 -- -- 86
2019-12-01 20:00:00 16.3 11 Noroeste 14 Norte 0 -- -- 83
2019-12-01 19:00:00 17.4 9 Norte 24 Norte 0 -- -- 76
2019-12-01 18:00:00 18.4 21 Norte 30 Norte 0 -- -- 75
2019-12-01 17:00:00 19.3 18 Norte 29 Norte 0 -- -- 67
2019-12-01 16:00:00 19.6 20 Nordeste 34 Nordeste 0 -- -- 69
2019-12-01 15:00:00 20.2 22 Nordeste 36 Norte 0 -- -- 68
2019-12-01 14:00:00 21.5 13 Norte 34 Norte 0 -- -- 62
2019-12-01 13:00:00 21.6 7 Nordeste 24 Este 0 -- -- 61
2019-12-01 12:00:00 20.3 14 Nordeste 29 Este 0 -- -- 68
2019-12-01 11:00:00 19.6 17 Nordeste 27 Nordeste 0 -- -- 74
2019-12-01 10:00:00 18.4 16 Nordeste 24 Nordeste 0 -- -- 79
2019-12-01 09:00:00 16.8 10 Nordeste 17 Nordeste 0 -- -- 87
2019-12-01 08:00:00 15.6 3 Noroeste 13 Nordeste 0 -- -- 88
2019-12-01 07:00:00 15.9 8 Este 21 Nordeste 0 -- -- 89
2019-12-01 06:00:00 15.9 3 Nordeste 12 Este 0 -- -- 91
2019-12-01 05:00:00 16 6 Nordeste 19 Nordeste 0 -- -- 91
2019-12-01 04:00:00 15.8 6 Norte 13 Noroeste 0 -- -- 91
2019-12-01 03:00:00 15.9 4 Norte 13 Sudoeste 0 -- -- 91
2019-12-01 02:00:00 16 3 Norte 15 Nordeste 0 -- -- 91
2019-12-01 01:00:00 16.4 5 Norte 15 Sudeste 0 -- -- 89
2019-12-01 00:00:00 16.7 10 Nordeste 18 Nordeste 0 -- -- 90
2019-11-30 23:00:00 16.6 7 Nordeste 15 Nordeste 0 -- -- 90
2019-11-30 22:00:00 16.6 8 Noroeste 15 Noroeste 0 -- -- 88
2019-11-30 21:00:00 16.7 8 Noroeste 13 Norte 0 -- -- 89
2019-11-30 20:00:00 16.5 5 Noroeste 7 Noroeste 0 -- -- 85
2019-11-30 19:00:00 18.2 4 Sudoeste 14 Este 0 -- -- 83
2019-11-30 18:00:00 19.6 9 Este 19 Este 0 -- -- 79
2019-11-30 17:00:00 21.8 11 Este 21 Este 0 -- -- 69
2019-11-30 16:00:00 23.1 14 Este 26 Este 0 -- -- 58
2019-11-30 15:00:00 24.9 17 Este 24 Este 0 -- -- 52
2019-11-30 14:00:00 25.2 10 Este 17 Este 0 -- -- 44
2019-11-30 13:00:00 24.7 11 Este 19 Este 0 -- -- 46
2019-11-30 12:00:00 24 12 Sudeste 18 Sudeste 0 -- -- 47
2019-11-30 11:00:00 23 9 Sudeste 15 Este 0 -- -- 50
2019-11-30 10:00:00 21.6 5 Sudeste 12 Sur 0 -- -- 54
2019-11-30 09:00:00 20.8 7 Sur 11 Sudoeste 0 -- -- 49
2019-11-30 08:00:00 18.7 3 Sudoeste 12 Sudoeste 0 -- -- 54
2019-11-30 07:00:00 17.8 3 Sudoeste 10 Sur 0 -- -- 59
2019-11-30 06:00:00 17 7 Sudoeste 10 Sudoeste 0 -- -- 69
2019-11-30 05:00:00 15.3 3 Noroeste 10 Sudoeste 0 -- -- 64
2019-11-30 04:00:00 17.3 6 Sudoeste 12 Sur 0 -- -- 64
2019-11-30 03:00:00 17.1 5 Sudoeste 11 Sudoeste 0 -- -- 68
2019-11-30 02:00:00 16.8 8 Sudoeste 13 Sudoeste 0 -- -- 81
2019-11-30 01:00:00 16.6 9 Sur 13 Sur 0 -- -- 81
2019-11-30 00:00:00 16.4 8 Noroeste 10 Noroeste 0 -- -- 72
2019-11-29 23:00:00 16.7 6 Noroeste 13 Noroeste 0 -- -- 66
2019-11-29 22:00:00 16.5 7 Noroeste 9 Noroeste 0 -- -- 70
2019-11-29 21:00:00 17 4 Sudoeste 6 Sudoeste 0 -- -- 79
2019-11-29 20:00:00 18.3 4 Sudoeste 13 Este 0 -- -- 79
2019-11-29 19:00:00 19.7 3 Sudeste 8 Este 0 -- -- 73
2019-11-29 18:00:00 22.4 3 Este 12 Este 0 -- -- 62
2019-11-29 17:00:00 25.3 7 Este 18 Este 0 -- -- 44
2019-11-29 16:00:00 26.8 12 Este 18 Este 0 -- -- 40
2019-11-29 15:00:00 26.7 11 Este 19 Sudeste 0 -- -- 35
2019-11-29 14:00:00 25.2 13 Este 21 Este 0 -- -- 46
2019-11-29 13:00:00 24.1 13 Este 19 Este 0 -- -- 50
2019-11-29 12:00:00 23.4 10 Este 22 Este 0 -- -- 51
2019-11-29 11:00:00 22.5 13 Este 19 Este 0 -- -- 55
2019-11-29 10:00:00 20.9 10 Este 16 Este 0 -- -- 62
2019-11-29 09:00:00 19.4 5 Sur 10 Sur 0 -- -- 68
2019-11-29 08:00:00 17.4 4 Sudoeste 15 Este 0 -- -- 71
2019-11-29 07:00:00 17.9 8 Sur 17 Sur 0 -- -- 66
2019-11-29 06:00:00 17 3 Sur 11 Sudoeste 0 -- -- 74
2019-11-29 05:00:00 16.9 5 Sudeste 14 Sudeste 0 -- -- 72
2019-11-29 04:00:00 16.6 7 Sur 13 Sudeste 0 -- -- 76
2019-11-29 03:00:00 16.6 3 Sudoeste 11 Noroeste 0 -- -- 75
2019-11-29 02:00:00 17.1 3 Sudoeste 10 Noroeste 0 -- -- 69
2019-11-29 01:00:00 16.8 5 Noroeste 12 Noroeste 0 -- -- 72
2019-11-29 00:00:00 16.6 9 Noroeste 12 Noroeste 0 -- -- 76
2019-11-28 23:00:00 16.8 4 Oeste 10 Noroeste 0 -- -- 83
2019-11-28 22:00:00 16.6 5 Noroeste 10 Noroeste 0 -- -- 85
2019-11-28 21:00:00 16.8 7 Noroeste 13 Noroeste 0 -- -- 85
2019-11-28 20:00:00 17.3 8 Noroeste 15 Noroeste 0 -- -- 81
2019-11-28 19:00:00 18 3 Sudoeste 13 Este 0 -- -- 78
2019-11-28 18:00:00 18.9 8 Este 15 Este 0 -- -- 75
2019-11-28 17:00:00 20.4 10 Este 17 Este 0 -- -- 65
2019-11-28 16:00:00 21.8 10 Este 21 Este 0 -- -- 60
2019-11-28 15:00:00 22.7 13 Este 23 Este 0 -- -- 56
2019-11-28 14:00:00 23.4 13 Sudeste 23 Este 0 -- -- 53
2019-11-28 13:00:00 23.2 15 Este 24 Este 0 -- -- 51
2019-11-28 12:00:00 22.6 12 Este 20 Este 0 -- -- 50
2019-11-28 11:00:00 21.6 9 Este 18 Este 0 -- -- 56
2019-11-28 10:00:00 19 4 Este 9 Este 0 -- -- 79
2019-11-28 09:00:00 17.1 2 Norte 7 Oeste 0 -- -- 89
2019-11-28 08:00:00 15.5 5 Oeste 7 Oeste 0 -- -- 93
2019-11-28 07:00:00 15.6 0 Calma 8 Sudeste 0 -- -- 92
2019-11-28 06:00:00 15.9 4 Norte 11 Nordeste 0 -- -- 92
2019-11-28 05:00:00 15.6 3 Norte 11 Este 0 -- -- 92
2019-11-28 04:00:00 15.5 3 Noroeste 12 Nordeste 0 -- -- 92
2019-11-28 03:00:00 15.5 5 Norte 21 Nordeste 0 -- -- 90
2019-11-28 02:00:00 16.2 12 Nordeste 24 Nordeste 0 -- -- 90
2019-11-28 01:00:00 16.5 3 Norte 17 Nordeste 0 -- -- 90
2019-11-28 00:00:00 16.2 2 Nordeste 14 Norte 0 -- -- 92
2019-11-27 23:00:00 16.1 6 Norte 18 Nordeste 0 -- -- 92
2019-11-27 22:00:00 16.2 11 Nordeste 17 Nordeste 0 -- -- 92
2019-11-27 21:00:00 15.9 4 Norte 13 Norte 0 -- -- 89
2019-11-27 20:00:00 16.7 6 Norte 19 Este 0 -- -- 88
2019-11-27 19:00:00 17.2 14 Nordeste 22 Nordeste 0 -- -- 87
2019-11-27 18:00:00 18.2 12 Nordeste 22 Nordeste 0 -- -- 81
2019-11-27 17:00:00 19.6 15 Nordeste 24 Nordeste 0 -- -- 75
2019-11-27 16:00:00 20.7 17 Nordeste 26 Nordeste 0 -- -- 70
2019-11-27 15:00:00 21.8 15 Nordeste 26 Nordeste 0 -- -- 61
2019-11-27 14:00:00 22.7 18 Nordeste 26 Nordeste 0 -- -- 51
2019-11-27 13:00:00 21.9 16 Nordeste 24 Nordeste 0 -- -- 53
2019-11-27 05:00:00 -- -- -- -- -- -- -- -- --
2019-11-27 04:00:00 16.2 13 Nordeste 21 Norte 0 -- -- 90
2019-11-27 03:00:00 16.3 13 Nordeste 21 Nordeste 0 -- -- 92
2019-11-27 02:00:00 16.5 12 Nordeste 20 Nordeste 0 -- -- 91
2019-11-27 01:00:00 16.8 13 Nordeste 21 Nordeste 0 -- -- 91
2019-11-27 00:00:00 16.4 11 Nordeste 19 Nordeste 0 -- -- 92
2019-11-26 23:00:00 15.7 3 Noroeste 11 Norte 0 -- -- 93
2019-11-26 22:00:00 15.9 8 Noroeste 15 Norte 0 -- -- 90
2019-11-26 21:00:00 16.4 7 Noroeste 14 Norte 0 -- -- 89
2019-11-26 20:00:00 17.3 7 Nordeste 12 Nordeste 0 -- -- 88
2019-11-26 19:00:00 17.5 5 Norte 23 Nordeste 0 -- -- 87
2019-11-26 18:00:00 18.4 16 Nordeste 24 Nordeste 0 -- -- 83
2019-11-26 17:00:00 20.1 13 Nordeste 27 Este 0 -- -- 73
2019-11-26 16:00:00 21.8 21 Nordeste 28 Nordeste 0 -- -- 62
2019-11-26 15:00:00 23.5 14 Nordeste 20 Nordeste 0 -- -- 52
2019-11-26 14:00:00 23.4 9 Norte 17 Nordeste 0 -- -- 55
2019-11-26 13:00:00 22.2 12 Nordeste 20 Nordeste 0 -- -- 62
2019-11-26 12:00:00 21.5 7 Este 18 Este 0 -- -- 66
2019-11-26 11:00:00 20.4 12 Nordeste 21 Norte 0 -- -- 68
2019-11-26 10:00:00 18.8 12 Nordeste 18 Norte 0 -- -- 78
2019-11-26 09:00:00 17 6 Nordeste 12 Norte 0 -- -- 89
2019-11-26 08:00:00 14.9 7 Noroeste 10 Noroeste 0 -- -- 94
2019-11-26 07:00:00 14.8 4 Noroeste 12 Norte 0 -- -- 92
2019-11-26 06:00:00 14.9 5 Noroeste 11 Noroeste 0 -- -- 92
2019-11-26 05:00:00 15.4 4 Norte 14 Norte 0 -- -- 92
2019-11-26 04:00:00 15.2 5 Norte 10 Noroeste 0 -- -- 92
2019-11-26 03:00:00 15.3 5 Norte 15 Norte 0 -- -- 90
2019-11-26 02:00:00 16.2 11 Norte 17 Nordeste 0 -- -- 89
2019-11-26 01:00:00 16.4 9 Nordeste 15 Nordeste 0 -- -- 88
2019-11-26 00:00:00 16.2 4 Nordeste 18 Nordeste 0 -- -- 88
2019-11-25 23:00:00 16.2 6 Nordeste 22 Nordeste 0 -- -- 87
2019-11-25 22:00:00 16.2 9 Norte 22 Norte 0 -- -- 85
2019-11-25 21:00:00 16.9 18 Norte 27 Norte 0 -- -- 84
2019-11-25 20:00:00 17.4 20 Norte 30 Norte 0 -- -- 84
2019-11-25 19:00:00 17.8 13 Norte 21 Norte 0 -- -- 81
2019-11-25 18:00:00 18.1 13 Nordeste 23 Nordeste 0 -- -- 78
2019-11-25 17:00:00 18.8 13 Nordeste 24 Nordeste 0 -- -- 76
2019-11-25 16:00:00 19.5 17 Nordeste 27 Norte 0 -- -- 74
2019-11-25 15:00:00 20.3 20 Nordeste 31 Nordeste 0 -- -- 69
2019-11-25 14:00:00 20.6 17 Nordeste 31 Nordeste 0 -- -- 69
2019-11-25 13:00:00 19.8 17 Nordeste 31 Nordeste 0 -- -- 71
2019-11-25 12:00:00 18.9 19 Nordeste 31 Nordeste 0 -- -- 75
2019-11-25 11:00:00 18.1 21 Nordeste 40 Nordeste 0 -- -- 77
2019-11-25 10:00:00 17.5 14 Nordeste 26 Nordeste 0 -- -- 79
2019-11-25 09:00:00 16.6 14 Norte 19 Nordeste 0 -- -- 82
2019-11-25 08:00:00 15.3 7 Norte 14 Noroeste 0 -- -- 88
2019-11-25 07:00:00 14.7 9 Noroeste 15 Norte 0 -- -- 88
2019-11-25 06:00:00 14.3 10 Norte 17 Norte 0 -- -- 89
2019-11-25 05:00:00 13.6 9 Noroeste 14 Norte 0 -- -- 90
2019-11-25 04:00:00 13.6 6 Oeste 13 Norte 0 -- -- 89
2019-11-25 03:00:00 12.5 8 Norte 12 Norte 0 -- -- 91
2019-11-25 02:00:00 13.2 7 Norte 14 Norte 0 -- -- 89
2019-11-25 01:00:00 13.5 10 Norte 15 Norte 0 -- -- 87
2019-11-25 00:00:00 14.6 8 Norte 19 Norte 0 -- -- 82
2019-11-24 23:00:00 15.5 10 Norte 19 Norte 0 -- -- 80
2019-11-24 22:00:00 16.4 10 Norte 27 Norte 0 -- -- 76
2019-11-24 21:00:00 17.5 15 Norte 30 Norte 0 -- -- 74
2019-11-24 20:00:00 17.4 17 Norte 34 Norte 0 -- -- 74
2019-11-24 19:00:00 16.8 15 Norte 28 Norte 0 -- -- 76
2019-11-24 18:00:00 17.7 24 Norte 38 Norte 0 -- -- 73
2019-11-24 17:00:00 18.7 25 Norte 43 Noroeste 0 -- -- 70
2019-11-24 16:00:00 20 27 Norte 44 Noroeste 0 -- -- 67
2019-11-24 15:00:00 20.7 29 Norte 39 Norte 0 -- -- 63
2019-11-24 14:00:00 20.7 22 Norte 36 Noroeste 0 -- -- 62
2019-11-24 13:00:00 20.8 23 Norte 37 Norte 0 -- -- 58
2019-11-24 12:00:00 20.2 29 Norte 40 Norte 0 -- -- 66
2019-11-24 11:00:00 18.4 21 Norte 35 Norte 0 -- -- 82
2019-11-24 10:00:00 18.8 21 Norte 30 Norte 0 -- -- 81
2019-11-24 09:00:00 17.4 13 Norte 24 Noroeste 0 -- -- 87
2019-11-24 08:00:00 15.8 13 Norte 26 Norte 0 -- -- 92
2019-11-24 07:00:00 16.2 15 Norte 27 Noroeste 0 -- -- 90
2019-11-24 06:00:00 16.3 19 Norte 27 Noroeste 0 -- -- 91
2019-11-24 05:00:00 16.4 14 Norte 20 Norte 0 -- -- 94
2019-11-24 04:00:00 16.6 15 Norte 22 Noroeste 0 -- -- 93
2019-11-24 03:00:00 16.4 14 Noroeste 22 Noroeste 0 -- -- 93
2019-11-24 02:00:00 16.4 17 Noroeste 24 Noroeste 0 -- -- 95
2019-11-24 01:00:00 16.2 13 Noroeste 18 Noroeste 0 -- -- 95
2019-11-24 00:00:00 16 11 Norte 15 Noroeste 0 -- -- 95
2019-11-23 23:00:00 16.6 12 Noroeste 18 Norte 0 -- -- 94
2019-11-23 22:00:00 16.5 12 Norte 23 Noroeste 0 -- -- 93
2019-11-23 21:00:00 17 10 Norte 27 Norte 0 -- -- 93
2019-11-23 20:00:00 17.2 12 Norte 20 Noroeste 0 -- -- 93
2019-11-23 19:00:00 17.4 14 Norte 23 Noroeste 0 -- -- 90
2019-11-23 18:00:00 17.8 15 Noroeste 28 Norte 0 -- -- 87
2019-11-23 17:00:00 18.6 21 Norte 35 Norte 0 -- -- 88
2019-11-23 16:00:00 19 25 Norte 35 Norte 0 -- -- 92
2019-11-23 15:00:00 18.9 24 Noroeste 36 Noroeste 1 -- -- 93
2019-11-23 14:00:00 20.8 23 Noroeste 35 Norte 0 -- -- 87
2019-11-23 13:00:00 21.8 24 Norte 37 Noroeste 0 -- -- 78
2019-11-23 12:00:00 21.1 23 Noroeste 36 Noroeste 0 -- -- 78
2019-11-23 11:00:00 20.4 24 Noroeste 36 Noroeste 0 -- -- 82
2019-11-23 10:00:00 20.6 22 Noroeste 39 Noroeste 0 -- -- 86
2019-11-23 09:00:00 19.6 22 Noroeste 31 Noroeste 0 -- -- 91
2019-11-23 08:00:00 18.6 20 Noroeste 29 Noroeste 0 -- -- 93
2019-11-23 07:00:00 18.4 18 Noroeste 33 Noroeste 0 -- -- 92
2019-11-23 06:00:00 18.5 24 Noroeste 35 Noroeste 0 -- -- 92
2019-11-23 05:00:00 18.7 24 Noroeste 34 Noroeste 0 -- -- 87
2019-11-23 04:00:00 18.3 17 Noroeste 28 Noroeste 0 -- -- 84
2019-11-23 03:00:00 18.5 21 Noroeste 32 Noroeste 0 -- -- 89
2019-11-23 02:00:00 18.5 17 Noroeste 30 Noroeste 0 -- -- 88
2019-11-23 01:00:00 18.5 20 Noroeste 28 Oeste 0 -- -- 87
2019-11-23 00:00:00 18.4 14 Noroeste 29 Noroeste 0.2 -- -- 86
2019-11-22 23:00:00 17.9 10 Noroeste 23 Noroeste 0 -- -- 92
2019-11-22 22:00:00 18 4 Noroeste 18 Noroeste 0 -- -- 90
2019-11-22 21:00:00 18.2 7 Noroeste 16 Noroeste 0 -- -- 85
2019-11-22 20:00:00 18 13 Noroeste 19 Oeste 0 -- -- 85
2019-11-22 19:00:00 17.5 11 Noroeste 23 Oeste 0 -- -- 84
2019-11-22 18:00:00 18.4 17 Oeste 25 Oeste 0 -- -- 81
2019-11-22 17:00:00 19.3 15 Noroeste 23 Oeste 0 -- -- 75
2019-11-22 16:00:00 21.1 15 Oeste 26 Noroeste 0 -- -- 69
2019-11-22 15:00:00 20.9 21 Noroeste 29 Noroeste 0 -- -- 72
2019-11-22 14:00:00 20.6 20 Noroeste 28 Norte 0 -- -- 76
2019-11-22 13:00:00 20.2 21 Noroeste 32 Norte 0 -- -- 81
2019-11-22 12:00:00 20.2 22 Noroeste 31 Noroeste 0 -- -- 83
2019-11-22 11:00:00 20.3 19 Noroeste 26 Noroeste 0 -- -- 90
2019-11-22 10:00:00 18.5 19 Noroeste 30 Noroeste 0.6 -- -- 94
2019-11-22 09:00:00 18.6 15 Oeste 25 Oeste 0.4 -- -- 93
2019-11-22 08:00:00 17.9 18 Oeste 40 Oeste 0.2 -- -- 93
2019-11-22 07:00:00 18 24 Oeste 35 Oeste 0 -- -- 90
2019-11-22 06:00:00 17.8 3 Sudeste 13 Este 0 -- -- 87
2019-11-22 05:00:00 17.6 3 Nordeste 15 Oeste 0 -- -- 86
2019-11-22 04:00:00 17.7 3 Sudeste 17 Sudoeste 0 -- -- 85
2019-11-22 03:00:00 17.8 9 Sudoeste 21 Oeste 0 -- -- 86
2019-11-22 02:00:00 17.3 8 Sur 14 Sudeste 0 -- -- 86
2019-11-22 01:00:00 16.6 3 Sudoeste 14 Sur 0 -- -- 87
2019-11-22 00:00:00 16.3 2 Sur 8 Sur 0 -- -- 87
2019-11-21 23:00:00 16.2 0 Calma 8 Sur 0 -- -- 88
2019-11-21 22:00:00 16.6 0 Calma 10 Sudoeste 0 -- -- 86
2019-11-21 21:00:00 16.8 2 Sudeste 13 Oeste 0 -- -- 84
2019-11-21 20:00:00 17.4 6 Oeste 21 Noroeste 0 -- -- 83
2019-11-21 19:00:00 17.6 10 Noroeste 21 Noroeste 0 -- -- 79
2019-11-21 18:00:00 18.4 5 Oeste 22 Oeste 0 -- -- 74
2019-11-21 17:00:00 19.1 10 Noroeste 28 Noroeste 0 -- -- 73
2019-11-21 16:00:00 20.1 14 Noroeste 25 Oeste 0 -- -- 70
2019-11-21 15:00:00 19.6 15 Noroeste 25 Oeste 0 -- -- 73
2019-11-21 14:00:00 19.8 16 Noroeste 24 Noroeste 0 -- -- 73
2019-11-21 13:00:00 20 9 Oeste 26 Noroeste 0 -- -- 74
2019-11-21 12:00:00 20.3 21 Oeste 28 Oeste 0 -- -- 77
2019-11-21 11:00:00 18.9 12 Noroeste 25 Oeste 0 -- -- 81
2019-11-21 10:00:00 18.5 12 Oeste 18 Oeste 0.8 -- -- 87
2019-11-21 09:00:00 18.1 10 Oeste 21 Noroeste 0 -- -- 85
2019-11-21 08:00:00 17.8 8 Sudoeste 18 Sudoeste 0 -- -- 85
2019-11-21 07:00:00 -- -- -- -- -- -- -- -- --
2019-11-21 06:00:00 -- -- -- -- -- -- -- -- --
2019-11-21 05:00:00 -- -- -- -- -- -- -- -- --
2019-11-21 04:00:00 -- -- -- -- -- -- -- -- --
2019-11-21 03:00:00 -- -- -- -- -- -- -- -- --
2019-11-21 02:00:00 -- -- -- -- -- -- -- -- --
2019-11-21 01:00:00 -- -- -- -- -- -- -- -- --
2019-11-21 00:00:00 -- -- -- -- -- -- -- -- --
2019-11-20 23:00:00 -- -- -- -- -- -- -- -- --
2019-11-20 22:00:00 -- -- -- -- -- -- -- -- --
2019-11-20 21:00:00 -- -- -- -- -- -- -- -- --
2019-11-20 20:00:00 -- -- -- -- -- -- -- -- --
2019-11-20 19:00:00 17.7 11 Oeste 21 Noroeste 0 -- -- 85
2019-11-20 18:00:00 18.3 11 Oeste 26 Oeste 0 -- -- 80
2019-11-20 17:00:00 18.9 13 Noroeste 27 Oeste 0 -- -- 79
2019-11-20 16:00:00 19.3 19 Oeste 33 Oeste 0 -- -- 76
2019-11-20 15:00:00 20.2 23 Oeste 36 Oeste 0 -- -- 74
2019-11-20 14:00:00 20.6 19 Oeste 30 Oeste 0 -- -- 73
2019-11-20 13:00:00 20.2 21 Oeste 31 Oeste 0 -- -- 71
2019-11-20 12:00:00 20.6 15 Noroeste 27 Noroeste 0 -- -- 75
2019-11-20 11:00:00 19.4 11 Oeste 26 Noroeste 0 -- -- 81
2019-11-20 10:00:00 17.4 3 Nordeste 8 Sudeste 0.2 -- -- 97
2019-11-20 09:00:00 15.7 3 Nordeste 6 Nordeste 0.6 -- -- 97
2019-11-20 08:00:00 14.8 0 Calma 5 Sudoeste 0.4 -- -- 96
2019-11-20 07:00:00 14.7 0 Calma 8 Oeste 0 -- -- 96
2019-11-20 06:00:00 14.6 3 Sur 8 Sudeste 0.2 -- -- 96
2019-11-20 05:00:00 14.5 3 Sudeste 7 Oeste 0 -- -- 94
2019-11-20 04:00:00 15 3 Nordeste 5 Norte 0 -- -- 93
2019-11-20 03:00:00 15 0 Calma 14 Oeste 0 -- -- 93
2019-11-20 02:00:00 14.2 2 Sur 5 Sur 0 -- -- 93
2019-11-20 01:00:00 14.1 0 Calma 5 Noroeste 0 -- -- 93
2019-11-20 00:00:00 14.3 6 Noroeste 9 Noroeste 0 -- -- 91
2019-11-19 23:00:00 15 5 Norte 17 Norte 0 -- -- 90
2019-11-19 22:00:00 15.7 10 Noroeste 15 Noroeste 0 -- -- 90
2019-11-19 21:00:00 15.4 6 Noroeste 12 Noroeste 0 -- -- 89
2019-11-19 20:00:00 16.1 9 Norte 19 Noroeste 0 -- -- 87
2019-11-19 19:00:00 16.9 13 Noroeste 23 Noroeste 0 -- -- 84
2019-11-19 18:00:00 17.3 18 Noroeste 28 Noroeste 0 -- -- 79
2019-11-19 17:00:00 18.4 19 Noroeste 30 Noroeste 0 -- -- 75
2019-11-19 16:00:00 19.4 23 Noroeste 33 Noroeste 0 -- -- 71
2019-11-19 15:00:00 20 24 Norte 34 Noroeste 0 -- -- 69
2019-11-19 14:00:00 20.4 23 Norte 37 Noroeste 0 -- -- 64
2019-11-19 13:00:00 20.4 26 Noroeste 37 Noroeste 0 -- -- 64
2019-11-19 12:00:00 19.2 23 Norte 33 Noroeste 0 -- -- 70
2019-11-19 11:00:00 19.3 24 Noroeste 33 Norte 0 -- -- 78
2019-11-19 10:00:00 18.5 23 Noroeste 33 Noroeste 0 -- -- 87
2019-11-19 09:00:00 17.6 21 Norte 28 Noroeste 0 -- -- 93
2019-11-19 08:00:00 16.5 19 Noroeste 28 Noroeste 0 -- -- 96
2019-11-19 07:00:00 16 15 Noroeste 24 Noroeste 1 -- -- 96
2019-11-19 06:00:00 15.5 14 Noroeste 22 Norte 0 -- -- 95
2019-11-19 05:00:00 16 17 Noroeste 26 Noroeste 0 -- -- 92
2019-11-19 04:00:00 14.2 2 Norte 8 Noroeste 0 -- -- 93
2019-11-19 03:00:00 13.9 5 Norte 9 Noroeste 0 -- -- 92
2019-11-19 02:00:00 14.5 0 Calma 12 Noroeste 0 -- -- 92
2019-11-19 01:00:00 14.8 9 Noroeste 15 Noroeste 0 -- -- 91
2019-11-19 00:00:00 14.5 9 Noroeste 12 Noroeste 0 -- -- 89
2019-11-18 23:00:00 14.3 8 Noroeste 15 Noroeste 0 -- -- 87
2019-11-18 22:00:00 14.5 12 Noroeste 14 Noroeste 0 -- -- 86
2019-11-18 21:00:00 15.2 12 Noroeste 19 Noroeste 0 -- -- 84
2019-11-18 20:00:00 16.1 14 Noroeste 24 Noroeste 0 -- -- 83
2019-11-18 19:00:00 17 15 Norte 24 Norte 0 -- -- 78
2019-11-18 18:00:00 17.6 14 Norte 24 Nordeste 0 -- -- 73
2019-11-18 17:00:00 18.1 13 Nordeste 23 Nordeste 0 -- -- 70
2019-11-18 16:00:00 18.8 16 Nordeste 26 Nordeste 0 -- -- 66
2019-11-18 15:00:00 19.5 18 Nordeste 29 Nordeste 0 -- -- 63
2019-11-18 14:00:00 20.3 16 Nordeste 30 Nordeste 0 -- -- 58
2019-11-18 13:00:00 19.8 19 Nordeste 40 Nordeste 0 -- -- 57
2019-11-18 12:00:00 19.1 17 Nordeste 31 Nordeste 0 -- -- 63
2019-11-18 11:00:00 18.1 18 Nordeste 28 Nordeste 0 -- -- 67
2019-11-18 10:00:00 17.5 15 Nordeste 23 Este 0 -- -- 72
2019-11-18 09:00:00 15.4 6 Norte 14 Norte 0 -- -- 87
2019-11-18 08:00:00 12.6 4 Noroeste 9 Norte 0 -- -- 91
2019-11-18 07:00:00 11.9 5 Noroeste 9 Noroeste 0 -- -- 89
2019-11-18 06:00:00 12.6 3 Noroeste 15 Norte 0 -- -- 88
2019-11-18 05:00:00 14 11 Norte 17 Nordeste 0 -- -- 86
2019-11-18 04:00:00 14.1 12 Nordeste 22 Nordeste 0 -- -- 86
2019-11-18 03:00:00 13.8 4 Nordeste 21 Nordeste 0 -- -- 84
2019-11-18 02:00:00 14 12 Nordeste 19 Nordeste 0 -- -- 83
2019-11-18 01:00:00 12.7 6 Noroeste 13 Nordeste 0 -- -- 80
2019-11-18 00:00:00 12.2 10 Noroeste 15 Noroeste 0 -- -- 78
2019-11-17 23:00:00 12.7 11 Noroeste 19 Noroeste 0 -- -- 76
2019-11-17 22:00:00 13.6 12 Noroeste 18 Noroeste 0 -- -- 75
2019-11-17 21:00:00 14.2 11 Norte 24 Nordeste 0 -- -- 73
2019-11-17 20:00:00 14.9 14 Nordeste 23 Norte 0 -- -- 73
2019-11-17 19:00:00 15 11 Nordeste 24 Nordeste 0 -- -- 72
2019-11-17 18:00:00 15.8 15 Nordeste 28 Este 0 -- -- 68
2019-11-17 17:00:00 16.9 19 Nordeste 33 Nordeste 0 -- -- 63
2019-11-17 16:00:00 17.6 23 Nordeste 37 Nordeste 0 -- -- 60
2019-11-17 15:00:00 18.2 23 Nordeste 38 Nordeste 0 -- -- 58
2019-11-17 14:00:00 18.4 26 Nordeste 39 Nordeste 0 -- -- 58
2019-11-17 13:00:00 18.4 27 Nordeste 43 Este 0 -- -- 59
2019-11-17 12:00:00 18.3 22 Nordeste 39 Nordeste 0 -- -- 61
2019-11-17 11:00:00 17 22 Nordeste 42 Nordeste 0 -- -- 66
2019-11-17 10:00:00 17 26 Nordeste 37 Nordeste 0 -- -- 67
2019-11-17 09:00:00 16.1 18 Nordeste 36 Nordeste 0 -- -- 73
2019-11-17 08:00:00 15.2 17 Norte 33 Nordeste 0 -- -- 66
2019-11-17 07:00:00 15.3 18 Nordeste 30 Nordeste 0 -- -- 72
2019-11-17 06:00:00 15.5 20 Norte 31 Nordeste 0 -- -- 67
2019-11-17 05:00:00 15.4 17 Nordeste 29 Nordeste 0 -- -- 73
2019-11-17 04:00:00 15.1 14 Norte 24 Nordeste 0 -- -- 69
2019-11-17 03:00:00 15 17 Norte 28 Norte 0 -- -- 68
2019-11-17 02:00:00 15 18 Norte 33 Nordeste 0 -- -- 69
2019-11-17 01:00:00 14.8 14 Norte 31 Nordeste 0 -- -- 67
2019-11-17 00:00:00 15.2 21 Norte 36 Norte 0 -- -- 69
2019-11-16 23:00:00 15.4 23 Norte 39 Norte 0 -- -- 66
2019-11-16 22:00:00 15.5 21 Norte 39 Norte 0 -- -- 70
2019-11-16 21:00:00 15.4 18 Norte 32 Norte 0 -- -- 74
2019-11-16 20:00:00 15.5 21 Norte 35 Norte 0 -- -- 71
2019-11-16 19:00:00 16 21 Norte 38 Nordeste 0 -- -- 73
2019-11-16 18:00:00 16.9 18 Nordeste 37 Norte 0 -- -- 65
2019-11-16 17:00:00 17.6 23 Nordeste 46 Norte 0 -- -- 69
2019-11-16 16:00:00 18.5 30 Norte 46 Norte 0 -- -- 60
2019-11-16 15:00:00 18 32 Norte 48 Norte 0 -- -- 69
2019-11-16 14:00:00 18.7 30 Norte 50 Norte 0 -- -- 62
2019-11-16 13:00:00 18.2 28 Norte 46 Norte 0 -- -- 60
2019-11-16 12:00:00 18.8 29 Norte 49 Norte 0 -- -- 58
2019-11-16 11:00:00 17.4 39 Norte 55 Norte 0 -- -- 68
2019-11-16 10:00:00 18.1 27 Norte 43 Norte 0 -- -- 62
2019-11-16 09:00:00 15.7 19 Norte 43 Norte 0 -- -- 72
2019-11-16 08:00:00 14 16 Noroeste 24 Noroeste 0 -- -- 74
2019-11-16 07:00:00 14.3 17 Norte 30 Norte 0 -- -- 82
2019-11-16 06:00:00 14.7 24 Norte 35 Norte 0 -- -- 78
2019-11-16 05:00:00 15.1 24 Norte 39 Norte 0 -- -- 74
2019-11-16 04:00:00 14.3 24 Norte 47 Norte 0 -- -- 80
2019-11-16 03:00:00 13.8 15 Noroeste 32 Norte 0 -- -- 78
2019-11-16 02:00:00 14.7 18 Norte 27 Norte 0 -- -- 79
2019-11-16 01:00:00 14.8 18 Norte 28 Norte 0 -- -- 76
2019-11-16 00:00:00 14.1 10 Norte 27 Norte 0 -- -- 84
2019-11-15 23:00:00 14.8 21 Norte 33 Noroeste 0 -- -- 80
2019-11-15 22:00:00 15.2 23 Norte 36 Norte 0 -- -- 77
2019-11-15 21:00:00 15.6 19 Norte 36 Norte 0 -- -- 70
2019-11-15 20:00:00 16.1 21 Norte 37 Norte 0 -- -- 72
2019-11-15 19:00:00 16.3 23 Norte 36 Norte 0 -- -- 72
2019-11-15 18:00:00 17 27 Norte 38 Norte 0 -- -- 61
2019-11-15 17:00:00 17.5 32 Norte 54 Norte 0 -- -- 60
2019-11-15 16:00:00 19.8 28 Norte 42 Norte 0 -- -- 52
2019-11-15 15:00:00 19.7 21 Norte 45 Norte 0 -- -- 53
2019-11-15 14:00:00 20 26 Norte 40 Nordeste 0 -- -- 57
2019-11-15 13:00:00 20 21 Nordeste 42 Norte 0 -- -- 56
2019-11-15 12:00:00 19.1 28 Norte 48 Norte 0 -- -- 56
2019-11-15 11:00:00 17.4 19 Norte 34 Norte 0.2 -- -- 76
2019-11-15 10:00:00 17.3 22 Nordeste 32 Nordeste 0 -- -- 77
2019-11-15 09:00:00 16.6 20 Norte 32 Norte 0 -- -- 84
2019-11-15 08:00:00 16.4 18 Norte 30 Norte 0 -- -- 82
2019-11-15 07:00:00 16.2 17 Norte 25 Norte 0 -- -- 79
2019-11-15 06:00:00 16.5 13 Norte 23 Noroeste 0 -- -- 77
2019-11-15 05:00:00 16.3 15 Norte 26 Norte 0 -- -- 77
2019-11-15 04:00:00 16.4 13 Norte 26 Norte 0 -- -- 71
2019-11-15 03:00:00 17 15 Norte 35 Nordeste 0 -- -- 64
2019-11-15 02:00:00 17.4 18 Norte 37 Nordeste 0 -- -- 67
2019-11-15 01:00:00 17.5 22 Norte 36 Nordeste 0 -- -- 69
2019-11-15 00:00:00 17.5 16 Norte 29 Nordeste 0 -- -- 68
2019-11-14 23:00:00 17.6 22 Norte 35 Norte 0 -- -- 64
2019-11-14 22:00:00 17.6 17 Nordeste 32 Norte 0 -- -- 71
2019-11-14 21:00:00 17.7 17 Nordeste 32 Nordeste 0 -- -- 73
2019-11-14 20:00:00 18 22 Norte 33 Norte 0 -- -- 70
2019-11-14 19:00:00 18.1 22 Nordeste 38 Este 0 -- -- 77
2019-11-14 18:00:00 18.5 19 Nordeste 32 Este 0 -- -- 78
2019-11-14 17:00:00 19.2 23 Nordeste 41 Este 0 -- -- 70
2019-11-14 16:00:00 20.4 24 Nordeste 42 Nordeste 0 -- -- 60
2019-11-14 15:00:00 20.6 23 Nordeste 41 Nordeste 0 -- -- 62
2019-11-14 14:00:00 21.4 23 Nordeste 36 Nordeste 0 -- -- 57
2019-11-14 13:00:00 21.1 26 Nordeste 41 Nordeste 0 -- -- 64
2019-11-14 12:00:00 20.8 21 Nordeste 35 Norte 0 -- -- 66
2019-11-14 11:00:00 20.1 24 Nordeste 40 Nordeste 0 -- -- 67
2019-11-14 10:00:00 18.9 24 Nordeste 36 Nordeste 0 -- -- 73
2019-11-14 09:00:00 18 19 Nordeste 31 Nordeste 0 -- -- 78
2019-11-14 08:00:00 16.8 10 Norte 21 Norte 0 -- -- 81
2019-11-14 07:00:00 16.3 10 Norte 18 Nordeste 0 -- -- 84
2019-11-14 06:00:00 16 11 Norte 22 Norte 0 -- -- 85
2019-11-14 05:00:00 15.3 12 Noroeste 22 Norte 0 -- -- 84
2019-11-14 04:00:00 14.7 14 Norte 21 Norte 0 -- -- 86
2019-11-14 03:00:00 14.9 10 Norte 16 Norte 0 -- -- 83
2019-11-14 02:00:00 14.8 11 Norte 15 Norte 0 -- -- 84
2019-11-14 01:00:00 15.3 13 Norte 27 Norte 0 -- -- 81
2019-11-14 00:00:00 15.8 12 Norte 28 Norte 0 -- -- 77
2019-11-13 23:00:00 16.6 16 Norte 31 Nordeste 0 -- -- 76
2019-11-13 22:00:00 16.7 18 Norte 41 Norte 0 -- -- 75
2019-11-13 21:00:00 16.5 13 Norte 24 Nordeste 0 -- -- 78
2019-11-13 20:00:00 16.9 10 Norte 26 Norte 0 -- -- 76
2019-11-13 19:00:00 17.3 19 Norte 39 Norte 0 -- -- 74
2019-11-13 18:00:00 17.9 31 Norte 48 Norte 0 -- -- 74
2019-11-13 17:00:00 19.3 36 Norte 56 Noroeste 0 -- -- 69
2019-11-13 16:00:00 21 39 Norte 54 Norte 0 -- -- 65
2019-11-13 15:00:00 22 30 Norte 47 Norte 0 -- -- 62
2019-11-13 14:00:00 22.3 28 Nordeste 45 Nordeste 0 -- -- 50
2019-11-13 13:00:00 21.6 33 Norte 46 Nordeste 0 -- -- 53
2019-11-13 12:00:00 21.5 32 Nordeste 49 Norte 0 -- -- 57
2019-11-13 11:00:00 21.1 35 Norte 51 Norte 0 -- -- 56
2019-11-13 10:00:00 19.7 31 Norte 43 Norte 0 -- -- 67
2019-11-13 09:00:00 17.6 27 Norte 38 Norte 0 -- -- 82
2019-11-13 08:00:00 16.4 28 Norte 38 Norte 0 -- -- 89
2019-11-13 07:00:00 16.1 26 Norte 44 Noroeste 0 -- -- 89
2019-11-13 06:00:00 16.3 34 Noroeste 46 Noroeste 0 -- -- 90
2019-11-13 05:00:00 16.1 31 Noroeste 44 Noroeste 0 -- -- 92
2019-11-13 04:00:00 16.1 20 Noroeste 31 Noroeste 0 -- -- 92
2019-11-13 03:00:00 16.2 19 Noroeste 28 Noroeste 0 -- -- 90
2019-11-13 02:00:00 16.2 19 Noroeste 27 Norte 0 -- -- 88
2019-11-13 01:00:00 16.3 21 Norte 42 Norte 0 -- -- 88
2019-11-13 00:00:00 16.6 28 Noroeste 48 Noroeste 0 -- -- 88
2019-11-12 23:00:00 16.6 30 Noroeste 42 Noroeste 0 -- -- 88
2019-11-12 22:00:00 16.7 28 Noroeste 42 Noroeste 0 -- -- 87
2019-11-12 21:00:00 16.8 21 Noroeste 30 Noroeste 0 -- -- 85
2019-11-12 20:00:00 16.7 13 Noroeste 31 Norte 0 -- -- 82
2019-11-12 19:00:00 17.4 22 Norte 41 Noroeste 0 -- -- 82
2019-11-12 18:00:00 18.2 31 Norte 52 Norte 0 -- -- 77
2019-11-12 17:00:00 19.7 37 Norte 49 Norte 0 -- -- 71
2019-11-12 16:00:00 21.3 36 Norte 54 Norte 0 -- -- 66
2019-11-12 15:00:00 21.6 40 Norte 53 Norte 0 -- -- 65
2019-11-12 14:00:00 23.2 33 Norte 50 Norte 0 -- -- 59
2019-11-12 13:00:00 22.7 36 Norte 53 Norte 0 -- -- 64
2019-11-12 12:00:00 21.6 26 Norte 45 Norte 0 -- -- 72
2019-11-12 11:00:00 20.8 27 Norte 43 Norte 0 -- -- 75
2019-11-12 10:00:00 20.7 25 Norte 39 Nordeste 0 -- -- 74
2019-11-12 09:00:00 20 20 Norte 36 Norte 0 -- -- 76
2019-11-12 08:00:00 18.7 18 Norte 40 Norte 0 -- -- 79
2019-11-12 07:00:00 18.5 28 Norte 44 Norte 0 -- -- 77
2019-11-12 06:00:00 18 17 Norte 32 Norte 0 -- -- 80
2019-11-12 05:00:00 17.7 23 Norte 41 Norte 0 -- -- 86
2019-11-12 04:00:00 17.1 26 Norte 41 Norte 0 -- -- 87
2019-11-12 03:00:00 17.1 27 Norte 40 Norte 0 -- -- 86
2019-11-12 02:00:00 17 24 Norte 39 Norte 0 -- -- 83
2019-11-12 01:00:00 17.3 30 Norte 45 Norte 0 -- -- 82
2019-11-12 00:00:00 17.5 30 Norte 49 Norte 0 -- -- 82